Time;durP1;ratioP1;P1;durP2;ratioP2;P2;SDS_P1;SDS_P2;PMS_P1;PMS_P2;Temp;Humidity;BMP_temperature;BMP_pressure;BME280_temperature;BME280_humidity;BME280_pressure;Samples;Min_cycle;Max_cycle;Signal;HPM_P1;HPM_P2
2023/07/24 00:01:12;;;;;;;20.15;18.40;;;17.20;69.50;;;;;;5091189;28;20640;-76
2023/07/24 00:03:38;;;;;;;19.75;17.95;;;17.30;69.20;;;;;;5075027;28;20024;-76
2023/07/24 00:06:04;;;;;;;20.73;18.60;;;17.40;68.30;;;;;;5106868;28;20068;-75
2023/07/24 00:08:29;;;;;;;19.52;17.80;;;17.30;69.70;;;;;;5109101;28;20060;-77
2023/07/24 00:10:56;;;;;;;18.85;17.27;;;17.30;68.80;;;;;;5106925;28;20035;-77
2023/07/24 00:13:22;;;;;;;19.95;17.52;;;17.40;67.20;;;;;;5091553;28;20043;-77
2023/07/24 00:15:47;;;;;;;18.80;17.27;;;17.50;65.80;;;;;;5089948;28;20031;-76
2023/07/24 00:18:13;;;;;;;19.98;18.13;;;17.30;68.10;;;;;;5108336;28;20031;-76
2023/07/24 00:20:39;;;;;;;19.08;17.27;;;17.30;68.50;;;;;;5105328;28;20074;-76
2023/07/24 00:23:04;;;;;;;19.45;17.83;;;17.40;67.40;;;;;;5089586;28;20038;-77
2023/07/24 00:25:30;;;;;;;19.67;17.88;;;17.30;67.90;;;;;;5072471;28;20032;-76
2023/07/24 00:27:56;;;;;;;20.00;18.30;;;17.30;67.70;;;;;;5107641;27;20081;-76
2023/07/24 00:30:21;;;;;;;19.60;17.90;;;17.20;68.60;;;;;;5109126;28;20039;-76
2023/07/24 00:32:47;;;;;;;20.85;18.88;;;17.20;69.10;;;;;;5110978;27;20031;-77
2023/07/24 00:35:13;;;;;;;19.45;17.83;;;17.10;70.60;;;;;;5106899;28;20486;-75
2023/07/24 00:37:38;;;;;;;20.90;19.10;;;17.10;70.20;;;;;;5107899;28;20502;-77
2023/07/24 00:40:04;;;;;;;18.75;17.13;;;17.10;71.10;;;;;;5088397;28;20058;-76
2023/07/24 00:42:30;;;;;;;19.48;17.95;;;17.10;70.70;;;;;;5108342;27;20081;-76
2023/07/24 00:44:56;;;;;;;59.47;34.00;;;17.30;69.80;;;;;;5092405;27;20028;-77
2023/07/24 00:47:22;;;;;;;69.25;52.78;;;18.40;99.90;;;;;;5089456;28;20735;-79
2023/07/24 00:49:49;;;;;;;50.42;45.45;;;17.40;99.90;;;;;;5090170;28;20036;-82
2023/07/24 00:52:15;;;;;;;79.85;75.55;;;16.80;99.90;;;;;;5090349;28;20024;-81
2023/07/24 00:54:43;;;;;;;92.65;87.68;;;17.40;99.90;;;;;;5109999;28;20043;-83
2023/07/24 00:57:09;;;;;;;106.00;92.63;;;17.60;99.90;;;;;;5074719;28;20539;-86
2023/07/24 00:59:35;;;;;;;62.58;58.88;;;17.00;99.90;;;;;;5108321;28;20087;-82
2023/07/24 01:02:02;;;;;;;74.18;69.47;;;16.90;99.90;;;;;;5109968;27;21202;-82
2023/07/24 01:04:27;;;;;;;76.55;72.40;;;16.80;99.90;;;;;;5076519;28;20051;-84
2023/07/24 01:06:54;;;;;;;103.90;98.45;;;16.90;99.90;;;;;;5091294;28;21013;-81
2023/07/24 01:09:20;;;;;;;141.68;134.23;;;17.00;99.90;;;;;;5110423;28;20032;-82
2023/07/24 01:12:30;;;;;;;178.65;170.18;;;17.30;99.90;;;;;;5111643;28;20042;-81
2023/07/24 01:15:04;;;;;;;188.90;179.80;;;17.30;99.90;;;;;;5106641;28;20085;-79
2023/07/24 01:17:32;;;;;;;120.35;114.97;;;17.40;99.90;;;;;;5087897;28;20400;-79
2023/07/24 01:20:03;;;;;;;139.57;132.90;;;17.30;99.90;;;;;;5089828;28;20081;-80
2023/07/24 01:22:29;;;;;;;128.50;122.70;;;17.30;99.90;;;;;;5103812;28;20034;-81
2023/07/24 01:25:23;;;;;;;155.93;148.90;;;17.20;99.90;;;;;;5106423;28;20019;-80
2023/07/24 01:27:48;;;;;;;171.93;164.18;;;17.20;99.90;;;;;;5106338;28;20731;-82
2023/07/24 01:30:17;;;;;;;169.88;161.80;;;17.30;99.90;;;;;;5086294;28;20031;-80
2023/07/24 01:32:43;;;;;;;134.60;127.97;;;17.30;99.90;;;;;;5107187;27;20049;-80
2023/07/24 01:35:09;;;;;;;123.57;117.55;;;17.30;99.90;;;;;;5104672;28;20730;-80
2023/07/24 01:37:37;;;;;;;144.10;137.18;;;17.20;99.90;;;;;;5107682;28;20127;-79
2023/07/24 01:40:03;;;;;;;168.73;160.85;;;17.20;99.90;;;;;;5104927;28;20028;-80
2023/07/24 01:42:29;;;;;;;131.27;124.75;;;17.30;99.90;;;;;;5102569;28;20037;-83
2023/07/24 01:44:55;;;;;;;111.60;104.82;;;17.20;99.90;;;;;;5106522;28;20034;-82
2023/07/24 01:47:22;;;;;;;163.38;151.20;;;17.10;99.90;;;;;;5089327;28;20036;-83
2023/07/24 01:49:48;;;;;;;163.77;155.68;;;16.70;99.90;;;;;;5109391;28;20506;-82
2023/07/24 01:52:14;;;;;;;109.50;102.40;;;16.80;99.90;;;;;;5108490;28;20024;-84
2023/07/24 01:54:39;;;;;;;121.90;115.80;;;17.00;99.90;;;;;;5092375;28;20028;-85
2023/07/24 01:57:05;;;;;;;175.82;167.73;;;16.70;99.90;;;;;;5075429;28;20027;-82
2023/07/24 01:59:32;;;;;;;168.40;160.73;;;16.70;99.90;;;;;;5109501;28;20023;-84
2023/07/24 02:01:58;;;;;;;156.52;149.15;;;16.70;99.90;;;;;;5094556;28;20700;-83
2023/07/24 02:04:23;;;;;;;163.75;156.35;;;16.80;99.90;;;;;;5092388;28;20036;-85
2023/07/24 02:06:49;;;;;;;185.20;176.63;;;16.90;99.90;;;;;;5093510;28;20116;-82
2023/07/24 02:09:18;;;;;;;165.55;158.15;;;16.80;99.90;;;;;;5109513;28;20035;-81
2023/07/24 02:11:45;;;;;;;155.13;146.48;;;16.90;99.90;;;;;;5109715;28;20051;-85
2023/07/24 02:14:13;;;;;;;143.50;134.63;;;17.10;99.90;;;;;;5113387;28;20039;-84
2023/07/24 02:16:40;;;;;;;137.05;128.80;;;17.20;99.90;;;;;;5111979;27;20376;-82
2023/07/24 02:19:05;;;;;;;138.45;127.70;;;17.40;99.90;;;;;;5110985;28;20572;-83
2023/07/24 02:21:32;;;;;;;131.18;123.28;;;17.20;99.90;;;;;;5110750;28;20146;-83
2023/07/24 02:23:58;;;;;;;146.75;139.48;;;17.40;99.90;;;;;;5109366;28;20125;-81
2023/07/24 02:26:23;;;;;;;171.60;162.70;;;17.30;99.90;;;;;;5092872;28;20107;-82
2023/07/24 02:28:51;;;;;;;171.00;162.52;;;17.30;99.90;;;;;;5111423;28;20399;-80
2023/07/24 02:31:16;;;;;;;165.50;155.45;;;17.20;99.90;;;;;;5110875;28;20173;-80
2023/07/24 02:33:42;;;;;;;156.23;146.65;;;17.20;99.90;;;;;;5091386;28;20055;-82
2023/07/24 02:36:08;;;;;;;157.90;145.93;;;17.20;99.90;;;;;;5112034;28;20040;-80
2023/07/24 02:38:33;;;;;;;179.23;170.18;;;17.20;99.90;;;;;;5108637;28;20564;-81
2023/07/24 02:40:59;;;;;;;157.57;149.50;;;17.50;99.90;;;;;;5111752;28;20052;-81
2023/07/24 02:43:25;;;;;;;157.45;148.95;;;17.20;99.90;;;;;;5091071;28;20111;-80
2023/07/24 02:45:50;;;;;;;190.48;181.20;;;17.20;99.90;;;;;;5109535;28;20473;-80
2023/07/24 02:48:16;;;;;;;180.10;171.30;;;17.40;99.90;;;;;;5091778;28;20058;-82
2023/07/24 02:50:42;;;;;;;178.00;169.30;;;17.10;99.90;;;;;;5107297;28;20400;-83
2023/07/24 02:53:09;;;;;;;170.45;162.35;;;17.00;99.90;;;;;;5092219;28;20032;-81
2023/07/24 02:55:35;;;;;;;171.73;162.95;;;16.90;99.90;;;;;;5109855;28;20101;-81
2023/07/24 02:58:00;;;;;;;192.60;182.80;;;16.90;99.90;;;;;;5108974;28;20036;-83
2023/07/24 03:00:26;;;;;;;177.20;167.20;;;16.90;99.90;;;;;;5113490;28;20020;-82
2023/07/24 03:02:55;;;;;;;180.77;169.70;;;16.50;99.90;;;;;;5077283;28;20035;-81
2023/07/24 03:05:22;;;;;;;177.27;167.68;;;16.40;99.90;;;;;;5108846;28;20032;-82
2023/07/24 03:07:47;;;;;;;172.10;161.52;;;16.60;99.90;;;;;;5109192;28;20035;-82
2023/07/24 03:10:13;;;;;;;190.48;176.70;;;16.80;99.90;;;;;;5108710;28;21156;-79
2023/07/24 03:12:38;;;;;;;172.02;163.13;;;16.70;99.90;;;;;;5076109;28;20028;-80
2023/07/24 03:15:05;;;;;;;168.23;158.70;;;16.40;99.90;;;;;;5111158;27;20038;-80
2023/07/24 03:17:31;;;;;;;182.63;173.32;;;16.30;99.90;;;;;;5110388;28;20382;-81
2023/07/24 03:19:56;;;;;;;172.75;163.90;;;16.30;99.90;;;;;;5108534;28;20027;-79
2023/07/24 03:22:22;;;;;;;144.48;135.80;;;16.00;99.90;;;;;;5107846;28;20131;-81
2023/07/24 03:24:47;;;;;;;149.00;140.60;;;16.10;99.90;;;;;;5107654;28;20028;-84
2023/07/24 03:27:13;;;;;;;163.45;154.63;;;15.90;99.90;;;;;;5075329;28;20039;-80
2023/07/24 03:29:40;;;;;;;142.35;135.38;;;16.00;99.90;;;;;;5109194;27;20719;-81
2023/07/24 03:32:07;;;;;;;181.30;171.68;;;16.00;99.90;;;;;;5109599;28;20526;-82
2023/07/24 03:34:32;;;;;;;176.73;162.38;;;16.00;99.90;;;;;;5090446;28;20042;-81
2023/07/24 03:36:58;;;;;;;169.15;158.48;;;15.90;99.90;;;;;;5107260;28;20028;-82
2023/07/24 03:39:23;;;;;;;179.95;163.55;;;15.80;99.90;;;;;;5106775;28;20027;-80
2023/07/24 03:41:49;;;;;;;152.25;143.77;;;15.80;99.90;;;;;;5110886;28;20394;-80
2023/07/24 03:44:15;;;;;;;163.60;154.77;;;15.90;99.90;;;;;;5096659;28;20392;-80
2023/07/24 03:46:40;;;;;;;167.93;159.82;;;16.00;99.90;;;;;;5109785;28;20486;-80
2023/07/24 03:49:06;;;;;;;164.98;155.38;;;16.00;99.90;;;;;;5107871;28;20130;-81
2023/07/24 03:51:33;;;;;;;169.40;158.18;;;16.00;99.90;;;;;;5110075;28;20058;-79
2023/07/24 03:53:58;;;;;;;179.40;167.63;;;16.00;99.90;;;;;;5089454;28;20063;-81
2023/07/24 03:56:24;;;;;;;167.02;157.70;;;15.80;99.90;;;;;;5092240;28;20098;-79
2023/07/24 03:58:52;;;;;;;171.48;160.75;;;15.80;99.90;;;;;;5091876;28;20080;-79
2023/07/24 04:01:18;;;;;;;175.07;166.82;;;15.60;99.90;;;;;;5107580;28;20031;-81
2023/07/24 04:03:44;;;;;;;174.63;165.30;;;15.80;99.90;;;;;;5107078;28;20116;-80
2023/07/24 04:06:10;;;;;;;170.52;159.50;;;15.80;99.90;;;;;;5110936;28;20473;-80
2023/07/24 04:08:36;;;;;;;136.30;127.65;;;15.60;99.90;;;;;;5088452;28;20386;-80
2023/07/24 04:11:04;;;;;;;150.02;142.93;;;15.40;99.90;;;;;;5058515;28;20085;-80
2023/07/24 04:13:30;;;;;;;165.52;156.50;;;15.40;99.90;;;;;;5107671;27;20078;-81
2023/07/24 04:15:57;;;;;;;143.93;136.70;;;15.60;99.90;;;;;;5109670;28;20063;-79
2023/07/24 04:18:22;;;;;;;177.57;167.38;;;15.40;99.90;;;;;;5109238;28;20035;-81
2023/07/24 04:20:48;;;;;;;188.57;177.10;;;15.70;99.90;;;;;;5089833;28;20023;-80
2023/07/24 04:23:14;;;;;;;163.10;154.30;;;15.60;99.90;;;;;;5088509;28;20077;-80
2023/07/24 04:25:39;;;;;;;156.40;148.63;;;15.60;99.90;;;;;;5111408;28;20042;-80
2023/07/24 04:28:05;;;;;;;184.93;174.82;;;15.60;99.90;;;;;;5107282;28;20485;-80
2023/07/24 04:30:31;;;;;;;150.25;143.15;;;15.60;99.90;;;;;;5088872;28;20123;-82
2023/07/24 04:32:56;;;;;;;163.00;155.13;;;15.70;99.90;;;;;;5108848;28;20031;-78
2023/07/24 04:35:22;;;;;;;173.98;164.98;;;15.70;99.90;;;;;;5073776;28;20527;-80
2023/07/24 04:37:51;;;;;;;172.07;163.70;;;15.90;99.90;;;;;;5087903;28;20039;-82
2023/07/24 04:40:16;;;;;;;126.80;120.13;;;16.00;99.90;;;;;;5102687;28;20040;-81
2023/07/24 04:42:42;;;;;;;135.43;128.80;;;16.00;99.90;;;;;;5107411;28;20023;-83
2023/07/24 04:45:08;;;;;;;169.70;161.00;;;15.90;99.90;;;;;;5105460;28;20967;-75
2023/07/24 04:47:34;;;;;;;143.52;135.77;;;16.00;99.90;;;;;;5101877;28;20035;-75
2023/07/24 04:49:59;;;;;;;166.20;157.93;;;15.80;99.90;;;;;;5085210;28;20023;-75
2023/07/24 04:52:25;;;;;;;129.90;123.05;;;16.10;99.90;;;;;;5103832;28;20540;-73
2023/07/24 04:54:51;;;;;;;157.18;149.55;;;16.20;99.90;;;;;;5107072;28;20028;-73
2023/07/24 04:57:16;;;;;;;167.50;159.27;;;16.40;99.90;;;;;;5103187;28;20028;-72
2023/07/24 04:59:42;;;;;;;146.52;139.25;;;16.40;99.90;;;;;;5102353;28;20031;-73
2023/07/24 05:02:07;;;;;;;131.77;124.75;;;16.30;99.90;;;;;;5089760;28;20553;-73
2023/07/24 05:04:33;;;;;;;130.05;123.65;;;16.30;99.90;;;;;;5072966;28;20031;-73
2023/07/24 05:06:59;;;;;;;105.70;99.68;;;16.20;99.90;;;;;;5104321;28;20035;-76
2023/07/24 05:09:24;;;;;;;101.43;95.55;;;16.20;99.90;;;;;;5108325;28;20044;-74
2023/07/24 05:11:50;;;;;;;164.18;156.15;;;16.20;99.90;;;;;;5106193;28;20086;-74
2023/07/24 05:14:16;;;;;;;137.35;130.88;;;16.20;99.90;;;;;;5089004;28;20737;-75
2023/07/24 05:16:41;;;;;;;112.97;107.13;;;16.20;99.90;;;;;;5107681;28;20027;-73
2023/07/24 05:19:07;;;;;;;114.72;108.57;;;16.20;99.90;;;;;;5086697;28;20027;-75
2023/07/24 05:21:34;;;;;;;137.35;130.63;;;16.30;99.90;;;;;;5106522;28;20026;-85
2023/07/24 05:23:59;;;;;;;105.97;100.43;;;16.40;99.90;;;;;;5087935;28;20123;-80
2023/07/24 05:26:25;;;;;;;76.70;71.88;;;16.50;99.90;;;;;;5085644;28;20548;-82
2023/07/24 05:28:52;;;;;;;87.05;81.90;;;16.60;99.90;;;;;;5070956;28;20047;-84
2023/07/24 05:31:18;;;;;;;62.80;59.00;;;16.80;99.90;;;;;;5072386;28;20030;-81
2023/07/24 05:33:44;;;;;;;69.63;65.32;;;16.80;99.90;;;;;;5088583;28;20020;-80
2023/07/24 05:36:10;;;;;;;83.90;78.53;;;16.80;99.90;;;;;;5109478;28;20074;-80
2023/07/24 05:38:36;;;;;;;62.20;57.72;;;16.80;99.90;;;;;;5104744;28;20059;-82
2023/07/24 05:41:03;;;;;;;77.30;59.90;;;16.60;99.90;;;;;;5086388;28;20028;-81
2023/07/24 05:43:30;;;;;;;80.38;75.35;;;16.50;99.90;;;;;;5088221;28;20036;-86
2023/07/24 05:45:57;;;;;;;124.22;115.75;;;18.30;99.90;;;;;;5087914;28;20081;-84
2023/07/24 05:48:23;;;;;;;117.35;111.43;;;17.90;99.90;;;;;;5084682;28;20063;-82
2023/07/24 05:50:49;;;;;;;117.32;111.45;;;17.80;99.90;;;;;;5104729;28;20327;-82
2023/07/24 05:53:15;;;;;;;149.43;142.32;;;18.10;99.90;;;;;;5107053;28;20031;-80
2023/07/24 05:55:42;;;;;;;100.50;95.43;;;17.80;99.90;;;;;;5103744;28;20388;-80
2023/07/24 05:58:08;;;;;;;76.30;72.05;;;18.00;99.90;;;;;;5105100;28;20043;-79
2023/07/24 06:00:35;;;;;;;104.20;99.13;;;17.80;99.90;;;;;;5087520;28;20044;-79
2023/07/24 06:03:00;;;;;;;111.45;103.47;;;18.00;99.90;;;;;;5082942;28;20019;-79
2023/07/24 06:05:28;;;;;;;125.50;111.70;;;18.00;99.90;;;;;;5087387;28;21065;-90
2023/07/24 06:07:54;;;;;;;52.78;49.53;;;18.00;99.90;;;;;;5106136;28;20034;-77
2023/07/24 06:10:20;;;;;;;178.93;156.75;;;18.10;99.90;;;;;;5089073;28;20481;-78
2023/07/24 06:12:46;;;;;;;203.68;115.25;;;17.90;99.90;;;;;;5086521;28;20446;-76
2023/07/24 06:15:11;;;;;;;99.18;93.32;;;17.90;99.90;;;;;;5107592;28;20067;-76
2023/07/24 06:17:37;;;;;;;180.05;162.65;;;18.00;99.90;;;;;;5103674;28;20044;-77
2023/07/24 06:20:03;;;;;;;216.90;194.35;;;17.80;99.90;;;;;;5102992;28;20115;-76
2023/07/24 06:22:28;;;;;;;296.00;257.80;;;17.70;99.90;;;;;;5106549;28;20034;-76
2023/07/24 06:24:54;;;;;;;85.28;80.63;;;17.80;99.90;;;;;;5072214;28;20043;-80
2023/07/24 06:27:21;;;;;;;78.82;74.55;;;18.10;99.90;;;;;;5089765;28;20431;-78
2023/07/24 06:29:48;;;;;;;185.52;165.65;;;17.50;99.90;;;;;;5088244;28;20032;-78
2023/07/24 06:32:13;;;;;;;110.90;104.60;;;17.00;99.90;;;;;;5089006;28;20034;-79
2023/07/24 06:34:39;;;;;;;113.03;105.15;;;16.80;99.90;;;;;;5106147;28;20024;-81
2023/07/24 06:37:06;;;;;;;112.72;107.28;;;16.70;99.90;;;;;;5089860;28;20028;-79
2023/07/24 06:39:33;;;;;;;155.43;148.88;;;16.40;99.90;;;;;;5104273;28;20038;-77
2023/07/24 06:41:59;;;;;;;152.85;146.73;;;16.70;99.90;;;;;;5086904;28;20039;-78
2023/07/24 06:44:24;;;;;;;151.63;144.65;;;16.70;99.90;;;;;;5105390;28;20051;-77
2023/07/24 06:46:50;;;;;;;112.82;108.20;;;16.80;99.90;;;;;;5092629;28;20794;-77
2023/07/24 06:49:16;;;;;;;126.15;120.75;;;16.90;99.90;;;;;;5091195;28;20059;-79
2023/07/24 06:51:41;;;;;;;157.52;150.93;;;17.00;99.90;;;;;;5110145;28;20508;-77
2023/07/24 06:54:07;;;;;;;114.90;110.20;;;17.10;99.90;;;;;;5071589;28;20508;-78
2023/07/24 06:56:32;;;;;;;119.93;115.10;;;17.20;99.90;;;;;;5108416;27;20035;-77
2023/07/24 06:58:58;;;;;;;72.38;69.18;;;17.20;99.90;;;;;;5109162;28;20067;-78
2023/07/24 07:01:24;;;;;;;125.25;120.20;;;17.10;99.90;;;;;;5088717;28;20106;-76
2023/07/24 07:03:50;;;;;;;160.18;154.07;;;17.10;99.90;;;;;;5093048;27;20254;-73
2023/07/24 07:06:16;;;;;;;162.13;155.93;;;17.30;99.90;;;;;;5097726;28;20107;-74
2023/07/24 07:08:42;;;;;;;99.15;95.10;;;17.40;99.90;;;;;;5092266;28;20019;-75
2023/07/24 07:11:08;;;;;;;88.18;84.30;;;17.50;99.90;;;;;;5110428;28;20027;-76
2023/07/24 07:13:54;;;;;;;101.80;97.45;;;17.50;99.90;;;;;;5107457;28;20055;-76
2023/07/24 07:16:19;;;;;;;96.10;92.05;;;17.50;99.90;;;;;;5107664;27;20035;-78
2023/07/24 07:18:45;;;;;;;97.95;93.40;;;17.50;99.90;;;;;;5105240;28;20444;-76
2023/07/24 07:21:11;;;;;;;84.65;80.68;;;17.60;99.90;;;;;;5107554;28;20024;-76
2023/07/24 07:23:36;;;;;;;76.38;72.78;;;17.60;99.90;;;;;;5109815;28;20032;-75
2023/07/24 07:26:02;;;;;;;66.38;63.45;;;17.70;99.90;;;;;;5108851;28;20030;-76
2023/07/24 07:28:28;;;;;;;72.10;68.80;;;17.60;99.90;;;;;;5102908;28;20338;-77
2023/07/24 07:30:54;;;;;;;62.10;59.17;;;17.50;99.90;;;;;;5109081;28;20044;-76
2023/07/24 07:33:21;;;;;;;64.95;61.53;;;17.40;99.90;;;;;;5084106;28;20040;-78
2023/07/24 07:35:47;;;;;;;75.13;67.25;;;17.40;99.90;;;;;;5109563;28;20035;-75
2023/07/24 07:38:13;;;;;;;51.40;48.60;;;17.30;99.90;;;;;;5105703;27;20098;-76
2023/07/24 07:40:39;;;;;;;77.93;74.30;;;17.30;99.90;;;;;;5094539;28;20386;-75
2023/07/24 07:43:05;;;;;;;47.63;45.30;;;17.30;99.90;;;;;;5112739;28;20050;-75
2023/07/24 07:45:30;;;;;;;56.83;54.25;;;17.40;99.90;;;;;;5110031;28;20035;-73
2023/07/24 07:47:56;;;;;;;56.17;53.60;;;17.40;99.90;;;;;;5105734;28;20048;-76
2023/07/24 07:50:22;;;;;;;52.08;49.45;;;17.30;99.90;;;;;;5109625;28;20039;-76
2023/07/24 07:52:51;;;;;;;55.80;52.83;;;17.20;99.90;;;;;;5108470;28;20024;-75
2023/07/24 07:55:18;;;;;;;41.97;39.50;;;17.20;99.90;;;;;;5105633;27;20036;-74
2023/07/24 07:57:44;;;;;;;41.38;38.97;;;17.20;99.90;;;;;;5106570;28;20027;-74
2023/07/24 08:00:11;;;;;;;44.90;42.28;;;17.30;99.90;;;;;;5108105;28;20078;-76
2023/07/24 08:02:39;;;;;;;44.38;41.40;;;17.60;99.90;;;;;;5087231;28;20519;-76
2023/07/24 08:05:07;;;;;;;49.67;46.88;;;17.70;99.90;;;;;;5105194;28;20035;-76
2023/07/24 08:07:33;;;;;;;34.55;32.50;;;17.50;99.90;;;;;;5107030;28;20051;-77
2023/07/24 08:09:58;;;;;;;52.83;49.78;;;17.60;99.90;;;;;;5086825;28;21253;-76
2023/07/24 08:12:25;;;;;;;34.70;32.30;;;17.80;99.90;;;;;;5086790;28;20055;-76
2023/07/24 08:14:50;;;;;;;31.70;29.35;;;18.00;99.90;;;;;;5107243;28;20027;-75
2023/07/24 08:17:16;;;;;;;27.15;25.25;;;18.40;99.90;;;;;;5100024;28;20081;-75
2023/07/24 08:19:42;;;;;;;27.17;25.48;;;18.70;99.90;;;;;;5069597;28;20049;-75
2023/07/24 08:22:07;;;;;;;31.85;29.27;;;18.60;99.90;;;;;;5109468;28;20036;-76
2023/07/24 08:24:36;;;;;;;28.23;26.40;;;18.70;99.90;;;;;;5107019;27;20027;-75
2023/07/24 08:27:02;;;;;;;27.40;25.70;;;19.00;99.90;;;;;;5090598;28;20043;-75
2023/07/24 08:29:28;;;;;;;91.38;81.68;;;19.40;99.90;;;;;;5106069;28;20035;-75
2023/07/24 08:31:54;;;;;;;31.08;29.38;;;19.50;99.90;;;;;;5103584;28;20085;-74
2023/07/24 08:34:21;;;;;;;31.42;29.73;;;19.40;99.90;;;;;;5102302;28;20512;-73
2023/07/24 08:36:47;;;;;;;23.92;22.58;;;19.60;99.90;;;;;;5089608;27;20031;-73
2023/07/24 08:39:12;;;;;;;24.65;23.25;;;19.80;99.90;;;;;;5088797;28;20393;-73
2023/07/24 08:41:38;;;;;;;25.52;23.83;;;20.00;99.90;;;;;;5106016;28;20032;-73
2023/07/24 08:44:07;;;;;;;24.77;23.02;;;20.10;92.40;;;;;;5106675;28;20032;-72
2023/07/24 08:46:37;;;;;;;23.15;21.70;;;20.50;91.30;;;;;;5107232;28;20016;-72
2023/07/24 08:49:03;;;;;;;29.58;27.95;;;20.40;90.90;;;;;;5109426;28;20088;-72
2023/07/24 08:51:30;;;;;;;22.63;21.02;;;20.40;91.40;;;;;;5107769;28;20042;-73
2023/07/24 08:53:57;;;;;;;24.92;23.35;;;20.40;90.10;;;;;;5107196;28;20114;-72
2023/07/24 08:56:22;;;;;;;25.52;23.80;;;20.20;88.70;;;;;;5108834;28;20393;-72
2023/07/24 08:58:48;;;;;;;25.55;23.88;;;20.10;90.80;;;;;;5086149;28;20040;-72
2023/07/24 09:01:14;;;;;;;31.00;28.05;;;20.30;90.40;;;;;;5090572;28;21023;-72
2023/07/24 09:03:39;;;;;;;26.70;25.23;;;20.50;90.80;;;;;;5106992;28;20042;-72
2023/07/24 09:06:08;;;;;;;27.15;25.55;;;20.50;88.20;;;;;;5107073;28;20077;-70
2023/07/24 09:08:39;;;;;;;27.10;25.45;;;20.30;88.10;;;;;;5107455;28;20035;-72
2023/07/24 09:11:06;;;;;;;26.20;24.52;;;20.40;88.40;;;;;;5103971;28;20445;-72
2023/07/24 09:13:32;;;;;;;26.95;25.00;;;20.40;84.90;;;;;;5105766;28;20486;-72
2023/07/24 09:16:01;;;;;;;28.65;26.88;;;20.80;87.90;;;;;;5105464;28;20028;-73
2023/07/24 09:18:27;;;;;;;30.98;29.35;;;21.30;83.10;;;;;;5104982;28;20036;-73
2023/07/24 09:20:52;;;;;;;27.23;25.77;;;22.20;79.30;;;;;;5104992;28;20039;-73
2023/07/24 09:23:27;;;;;;;34.78;32.88;;;22.50;79.10;;;;;;5104847;28;20039;-72
2023/07/24 09:25:53;;;;;;;29.08;27.40;;;22.70;76.90;;;;;;5105806;28;20379;-73
2023/07/24 09:28:20;;;;;;;30.73;28.92;;;22.80;77.90;;;;;;5089846;28;20035;-73
2023/07/24 09:30:57;;;;;;;33.42;31.50;;;22.80;73.50;;;;;;5089173;28;20077;-73
2023/07/24 09:33:33;;;;;;;33.33;31.52;;;23.30;73.20;;;;;;5106282;28;20039;-73
2023/07/24 09:36:03;;;;;;;38.03;36.15;;;23.10;73.90;;;;;;5087333;28;20046;-73
2023/07/24 09:38:29;;;;;;;;;;;23.00;73.50;;;;;;5072997;28;20051;-72
2023/07/24 09:40:56;;;;;;;41.05;38.95;;;23.50;69.80;;;;;;5108507;27;19927;-72
2023/07/24 09:43:27;;;;;;;29.73;28.02;;;23.60;73.50;;;;;;5088958;28;20032;-72
2023/07/24 09:45:54;;;;;;;27.98;26.48;;;23.60;72.50;;;;;;5107108;28;20032;-72
2023/07/24 09:48:22;;;;;;;32.63;30.92;;;23.50;71.20;;;;;;5090111;28;20817;-72
2023/07/24 09:50:53;;;;;;;22.05;20.75;;;23.90;69.90;;;;;;5104716;28;20370;-75
2023/07/24 09:53:44;;;;;;;24.90;23.40;;;24.10;66.90;;;;;;5109451;28;20066;-76
2023/07/24 09:56:10;;;;;;;22.80;21.50;;;24.20;69.40;;;;;;5101139;28;20520;-76
2023/07/24 09:58:37;;;;;;;21.65;20.00;;;24.00;65.40;;;;;;5106864;28;20039;-76
2023/07/24 10:01:08;;;;;;;22.80;21.20;;;24.00;64.20;;;;;;5086826;28;20019;-76
2023/07/24 10:03:35;;;;;;;24.15;22.75;;;23.80;65.30;;;;;;5088432;28;20055;-76
2023/07/24 10:06:01;;;;;;;28.88;27.30;;;24.30;66.90;;;;;;5087585;28;20547;-76
2023/07/24 10:08:28;;;;;;;26.88;25.23;;;24.50;68.40;;;;;;5088081;28;20050;-75
2023/07/24 10:10:54;;;;;;;19.85;18.13;;;24.70;64.10;;;;;;5104223;28;20036;-76
2023/07/24 10:13:21;;;;;;;18.25;17.15;;;24.60;62.80;;;;;;5104272;28;20033;-76
2023/07/24 10:15:48;;;;;;;22.50;21.17;;;24.80;61.00;;;;;;5103897;28;20067;-76
2023/07/24 10:18:19;;;;;;;28.60;27.05;;;25.00;61.60;;;;;;5086678;28;20040;-76
2023/07/24 10:20:46;;;;;;;21.90;20.52;;;25.60;61.00;;;;;;5094905;28;20034;-75
2023/07/24 10:23:17;;;;;;;22.33;20.95;;;25.40;61.00;;;;;;5093197;28;20730;-75
2023/07/24 10:25:45;;;;;;;19.75;18.45;;;25.00;63.60;;;;;;5093433;28;20024;-75
2023/07/24 10:28:12;;;;;;;19.00;17.80;;;24.90;60.50;;;;;;5111776;28;20077;-75
2023/07/24 10:30:39;;;;;;;25.48;24.23;;;24.80;61.70;;;;;;5108686;28;20024;-76
2023/07/24 10:33:13;;;;;;;17.90;16.63;;;25.30;60.80;;;;;;5110425;28;20533;-76
2023/07/24 10:35:51;;;;;;;18.63;17.42;;;26.00;57.30;;;;;;5087130;28;20056;-76
2023/07/24 10:38:17;;;;;;;19.42;18.13;;;25.90;59.00;;;;;;5109845;28;20089;-76
2023/07/24 10:40:46;;;;;;;17.92;16.67;;;25.50;57.70;;;;;;5090726;28;20035;-76
2023/07/24 10:43:13;;;;;;;19.30;17.73;;;25.20;54.20;;;;;;5109784;28;20020;-75
2023/07/24 10:45:49;;;;;;;18.95;17.85;;;25.00;57.60;;;;;;5107464;27;20055;-75
2023/07/24 10:48:17;;;;;;;18.88;17.33;;;25.70;54.90;;;;;;5104302;28;20038;-75
2023/07/24 10:50:44;;;;;;;19.98;18.67;;;26.00;55.90;;;;;;5089941;28;20042;-75
2023/07/24 10:53:19;;;;;;;18.67;17.38;;;25.10;51.60;;;;;;5090735;28;20036;-75
2023/07/24 10:55:50;;;;;;;18.73;17.55;;;24.50;54.20;;;;;;5111342;28;20032;-75
2023/07/24 10:58:16;;;;;;;54.55;49.15;;;23.60;59.30;;;;;;5093353;28;20055;-72
2023/07/24 11:00:46;;;;;;;67.03;60.45;;;22.80;62.80;;;;;;5111392;28;20452;-77
2023/07/24 11:03:13;;;;;;;;;;;19.90;92.30;;;;;;5111589;28;20016;-79
2023/07/24 11:05:46;;;;;;;38.13;35.53;;;17.30;99.90;;;;;;5108363;28;19916;-81
2023/07/24 11:08:18;;;;;;;149.13;142.93;;;17.10;99.90;;;;;;5109187;28;20039;-77
2023/07/24 11:10:52;;;;;;;129.35;121.55;;;17.70;99.90;;;;;;5090725;28;20032;-79
2023/07/24 11:13:20;;;;;;;219.77;209.63;;;17.90;99.90;;;;;;5110177;28;20474;-80
2023/07/24 11:15:46;;;;;;;92.40;88.35;;;17.80;99.90;;;;;;5104968;28;20044;-79
2023/07/24 11:18:12;;;;;;;233.07;223.40;;;17.60;99.90;;;;;;5092398;28;20051;-81
2023/07/24 11:20:47;;;;;;;102.47;95.95;;;17.70;99.90;;;;;;5087318;28;20074;-80
2023/07/24 11:23:14;;;;;;;141.55;135.15;;;17.70;99.90;;;;;;5105502;28;20071;-79
2023/07/24 11:25:40;;;;;;;144.82;139.13;;;17.70;99.90;;;;;;5108565;27;20026;-78
2023/07/24 11:28:07;;;;;;;117.65;110.55;;;17.60;99.90;;;;;;5110601;28;20485;-79
2023/07/24 11:30:34;;;;;;;107.97;103.57;;;17.30;99.90;;;;;;5107438;28;20042;-81
2023/07/24 11:33:03;;;;;;;159.23;151.77;;;17.40;99.90;;;;;;5090548;28;20028;-81
2023/07/24 11:35:29;;;;;;;139.95;133.95;;;16.90;99.90;;;;;;5110140;28;20118;-79
2023/07/24 11:37:54;;;;;;;134.45;128.13;;;17.00;99.90;;;;;;5106102;28;20056;-81
2023/07/24 11:40:20;;;;;;;136.98;131.57;;;17.00;99.90;;;;;;5091072;28;20028;-80
2023/07/24 11:42:49;;;;;;;117.90;113.20;;;17.10;99.90;;;;;;5106927;28;20031;-80
2023/07/24 11:45:15;;;;;;;111.55;106.43;;;16.90;99.90;;;;;;5092143;28;20032;-79
2023/07/24 11:47:48;;;;;;;119.68;113.68;;;17.00;99.90;;;;;;5091054;28;20058;-80
2023/07/24 11:50:15;;;;;;;122.93;117.35;;;17.00;99.90;;;;;;5106766;28;20038;-78
2023/07/24 11:52:46;;;;;;;114.38;107.22;;;16.90;99.90;;;;;;5088552;28;20039;-82
2023/07/24 11:55:12;;;;;;;;;;;16.80;99.90;;;;;;5106575;28;20069;-79
2023/07/24 11:57:37;;;;;;;94.25;89.43;;;16.80;99.90;;;;;;5108337;28;20561;-78
2023/07/24 12:00:05;;;;;;;95.90;91.75;;;16.60;99.90;;;;;;5089228;28;20036;-78
2023/07/24 12:02:35;;;;;;;93.50;88.63;;;16.60;99.90;;;;;;5099819;28;20035;-84
2023/07/24 12:05:02;;;;;;;97.90;93.40;;;16.90;99.90;;;;;;5107866;27;20501;-82
2023/07/24 12:07:35;;;;;;;118.22;113.45;;;17.00;99.90;;;;;;5089599;28;20093;-79
2023/07/24 12:10:09;;;;;;;95.40;91.55;;;17.20;99.90;;;;;;5073434;28;20343;-79
2023/07/24 12:12:46;;;;;;;130.32;124.95;;;17.30;99.90;;;;;;5087550;28;20031;-81
2023/07/24 12:15:13;;;;;;;111.80;107.05;;;17.30;99.90;;;;;;5107393;28;20078;-78
2023/07/24 12:17:39;;;;;;;98.00;93.75;;;17.30;99.90;;;;;;5095421;28;20031;-80